Time;durP1;ratioP1;P1;durP2;ratioP2;P2;SDS_P1;SDS_P2;PMS_P1;PMS_P2;Temp;Humidity;BMP_temperature;BMP_pressure;BME280_temperature;BME280_humidity;BME280_pressure;Samples;Min_cycle;Max_cycle;Signal;HPM_P1;HPM_P2
2022/04/03 00:00:57;;;;;;;;;;;;;;;;;;5089302;28;19908;-55
2022/04/03 00:03:24;;;;;;;;;;;;;;;;;;5088811;28;19980;-55
2022/04/03 00:05:50;;;;;;;;;;;;;;;;;;5089936;28;19924;-51
2022/04/03 00:08:17;;;;;;;;;;;;;;;;;;5085769;28;19920;-52
2022/04/03 00:10:43;;;;;;;;;;;;;;;;;;5089181;28;19916;-54
2022/04/03 00:13:10;;;;;;;;;;;;;;;;;;5090314;28;19916;-56
2022/04/03 00:15:41;;;;;;;;;;;;;;;;;;5089804;28;19992;-53
2022/04/03 00:18:08;;;;;;;;;;;;;;;;;;5084748;28;19912;-53
2022/04/03 00:20:35;;;;;;;;;;;;;;;;;;5089535;28;19943;-61
2022/04/03 00:23:02;;;;;;;;;;;;;;;;;;5089834;28;20358;-47
2022/04/03 00:25:28;;;;;;;;;;;;;;;;;;5089210;28;19919;-41
2022/04/03 00:27:55;;;;;;;;;;;;;;;;;;5085100;28;19969;-41
2022/04/03 00:30:21;;;;;;;;;;;;;;;;;;5089714;28;20389;-46
2022/04/03 00:32:48;;;;;;;;;;;;;;;;;;5089947;28;19909;-50
2022/04/03 00:35:16;;;;;;;;;;;;;;;;;;5092499;28;19920;-51
2022/04/03 00:37:42;;;;;;;;;;;;;;;;;;5091866;28;19957;-53
2022/04/03 00:40:09;;;;;;;;;;;;;;;;;;5092439;28;19919;-51
2022/04/03 00:42:35;;;;;;;;;;;;;;;;;;5092730;28;19912;-49
2022/04/03 00:45:02;;;;;;;;;;;;;;;;;;5092549;28;20358;-55
2022/04/03 00:47:28;;;;;;;;;;;;;;;;;;5086575;28;19932;-41
2022/04/03 00:49:55;;;;;;;;;;;;;;;;;;5087781;28;19918;-45
2022/04/03 00:52:21;;;;;;;;;;;;;;;;;;5090803;28;19908;-48
2022/04/03 00:54:48;;;;;;;;;;;;;;;;;;5088809;28;19915;-43
2022/04/03 00:57:14;;;;;;;;;;;;;;;;;;5089268;28;19916;-45
2022/04/03 00:59:41;;;;;;;;;;;;;;;;;;5087189;28;19908;-46
2022/04/03 01:02:07;;;;;;;;;;;;;;;;;;5088845;28;19954;-50
2022/04/03 01:04:34;;;;;;;;;;;;;;;;;;5088713;28;19924;-45
2022/04/03 01:07:00;;;;;;;;;;;;;;;;;;5089331;28;19912;-43
2022/04/03 01:09:27;;;;;;;;;;;;;;;;;;5090319;28;20393;-53
2022/04/03 01:11:54;;;;;;;;;;;;;;;;;;5092219;28;19912;-51
2022/04/03 01:14:20;;;;;;;;;;;;;;;;;;5091659;28;19908;-57
2022/04/03 01:16:46;;;;;;;;;;;;;;;;;;5092404;28;19970;-45
2022/04/03 01:19:13;;;;;;;;;;;;;;;;;;5087530;28;20080;-43
2022/04/03 01:21:39;;;;;;;;;;;;;;;;;;5089418;28;19931;-43
2022/04/03 01:24:06;;;;;;;;;;;;;;;;;;5088765;28;20004;-49
2022/04/03 01:26:33;;;;;;;;;;;;;;;;;;5090959;28;19915;-49
2022/04/03 01:29:00;;;;;;;;;;;;;;;;;;5088372;28;19942;-44
2022/04/03 01:31:26;;;;;;;;;;;;;;;;;;5086582;28;19924;-47
2022/04/03 01:33:53;;;;;;;;;;;;;;;;;;5088825;28;19912;-46
2022/04/03 01:36:19;;;;;;;;;;;;;;;;;;5088977;28;19911;-44
2022/04/03 01:38:46;;;;;;;;;;;;;;;;;;5090190;28;19915;-51
2022/04/03 01:41:13;;;;;;;;;;;;;;;;;;5091921;28;19961;-53
2022/04/03 01:43:39;;;;;;;;;;;;;;;;;;5086344;28;20014;-45
2022/04/03 01:46:06;;;;;;;;;;;;;;;;;;5086544;28;20337;-50
2022/04/03 01:48:32;;;;;;;;;;;;;;;;;;5089208;28;19916;-49
2022/04/03 01:50:58;;;;;;;;;;;;;;;;;;5094763;28;19916;-49
2022/04/03 01:53:26;;;;;;;;;;;;;;;;;;5092345;28;19908;-48
2022/04/03 01:55:53;;;;;;;;;;;;;;;;;;5095322;28;20328;-49
2022/04/03 01:58:19;;;;;;;;;;;;;;;;;;5094660;28;19908;-51
2022/04/03 02:00:46;;;;;;;;;;;;;;;;;;5093948;28;19998;-51
2022/04/03 02:03:12;;;;;;;;;;;;;;;;;;5095534;28;20366;-54
2022/04/03 02:05:39;;;;;;;;;;;;;;;;;;5095350;28;19938;-53
2022/04/03 02:08:05;;;;;;;;;;;;;;;;;;5094206;28;19943;-51
2022/04/03 02:10:32;;;;;;;;;;;;;;;;;;5095070;28;19920;-54
2022/04/03 02:12:58;;;;;;;;;;;;;;;;;;5094788;28;20002;-58
2022/04/03 02:15:25;;;;;;;;;;;;;;;;;;5095472;28;19973;-44
2022/04/03 02:17:51;;;;;;;;;;;;;;;;;;5090026;28;20003;-52
2022/04/03 02:20:18;;;;;;;;;;;;;;;;;;5092054;28;19916;-53
2022/04/03 02:22:44;;;;;;;;;;;;;;;;;;5093372;28;19984;-46
2022/04/03 02:25:11;;;;;;;;;;;;;;;;;;5091182;28;19908;-45
2022/04/03 02:27:38;;;;;;;;;;;;;;;;;;5089587;28;19917;-49
2022/04/03 02:30:04;;;;;;;;;;;;;;;;;;5091705;28;20106;-43
2022/04/03 02:32:31;;;;;;;;;;;;;;;;;;5090228;28;20079;-50
2022/04/03 02:34:57;;;;;;;;;;;;;;;;;;5093280;28;19923;-49
2022/04/03 02:37:25;;;;;;;;;;;;;;;;;;5088749;28;19984;-51
2022/04/03 02:39:52;;;;;;;;;;;;;;;;;;5091279;28;20015;-48
2022/04/03 02:42:19;;;;;;;;;;;;;;;;;;5091143;28;19908;-47
2022/04/03 02:44:45;;;;;;;;;;;;;;;;;;5094952;28;20003;-53
2022/04/03 02:47:12;;;;;;;;;;;;;;;;;;5094858;28;19912;-49
2022/04/03 02:49:38;;;;;;;;;;;;;;;;;;5094297;28;19940;-48
2022/04/03 02:52:05;;;;;;;;;;;;;;;;;;5094584;28;19927;-56
2022/04/03 02:54:32;;;;;;;;;;;;;;;;;;5094352;28;19915;-53
2022/04/03 02:56:58;;;;;;;;;;;;;;;;;;5094462;28;19949;-55
2022/04/03 02:59:25;;;;;;;;;;;;;;;;;;5094232;28;19908;-51
2022/04/03 03:01:51;;;;;;;;;;;;;;;;;;5093544;28;19905;-50
2022/04/03 03:04:18;;;;;;;;;;;;;;;;;;5094211;28;19926;-46
2022/04/03 03:06:44;;;;;;;;;;;;;;;;;;5094376;28;19950;-50
2022/04/03 03:09:11;;;;;;;;;;;;;;;;;;5094104;28;20007;-46
2022/04/03 03:11:37;;;;;;;;;;;;;;;;;;5092408;28;19959;-38
2022/04/03 03:14:04;;;;;;;;;;;;;;;;;;5087659;28;19912;-39
2022/04/03 03:16:30;;;;;;;;;;;;;;;;;;5090421;28;20351;-38
2022/04/03 03:18:57;;;;;;;;;;;;;;;;;;5091427;28;19912;-41
2022/04/03 03:21:24;;;;;;;;;;;;;;;;;;5090938;28;20003;-43
2022/04/03 03:23:51;;;;;;;;;;;;;;;;;;5090088;28;19920;-40
2022/04/03 03:26:17;;;;;;;;;;;;;;;;;;5092445;28;19908;-49
2022/04/03 03:28:44;;;;;;;;;;;;;;;;;;5093558;28;19927;-55
2022/04/03 03:31:10;;;;;;;;;;;;;;;;;;5093593;28;19915;-52
2022/04/03 03:33:37;;;;;;;;;;;;;;;;;;5093298;28;19904;-55
2022/04/03 03:36:04;;;;;;;;;;;;;;;;;;5093967;28;20354;-48
2022/04/03 03:38:30;;;;;;;;;;;;;;;;;;5093554;28;20342;-54
2022/04/03 03:40:57;;;;;;;;;;;;;;;;;;5093691;28;20379;-56
2022/04/03 03:43:24;;;;;;;;;;;;;;;;;;5093366;28;19908;-54
2022/04/03 03:45:50;;;;;;;;;;;;;;;;;;5094291;28;19912;-51
2022/04/03 03:48:16;;;;;;;;;;;;;;;;;;5093918;28;19916;-51
2022/04/03 03:50:43;;;;;;;;;;;;;;;;;;5093777;28;19992;-53
2022/04/03 03:53:09;;;;;;;;;;;;;;;;;;5092811;28;19908;-56
2022/04/03 03:55:36;;;;;;;;;;;;;;;;;;5091313;28;19908;-55
2022/04/03 03:58:02;;;;;;;;;;;;;;;;;;5093505;28;19912;-53
2022/04/03 04:00:29;;;;;;;;;;;;;;;;;;5093675;28;19908;-60
2022/04/03 04:02:55;;;;;;;;;;;;;;;;;;5093793;28;19953;-47
2022/04/03 04:05:22;;;;;;;;;;;;;;;;;;5093286;28;19926;-56
2022/04/03 04:07:48;;;;;;;;;;;;;;;;;;5093096;28;19955;-51
2022/04/03 04:10:15;;;;;;;;;;;;;;;;;;5093206;28;20476;-51
2022/04/03 04:12:41;;;;;;;;;;;;;;;;;;5093307;28;19908;-54
2022/04/03 04:15:08;;;;;;;;;;;;;;;;;;5093120;28;19912;-53
2022/04/03 04:17:34;;;;;;;;;;;;;;;;;;5092583;28;19908;-53
2022/04/03 04:20:01;;;;;;;;;;;;;;;;;;5093070;28;20251;-51
2022/04/03 04:22:27;;;;;;;;;;;;;;;;;;5093274;28;19998;-51
2022/04/03 04:24:54;;;;;;;;;;;;;;;;;;5092797;28;19912;-54
2022/04/03 04:27:20;;;;;;;;;;;;;;;;;;5092558;28;19912;-52
2022/04/03 04:29:47;;;;;;;;;;;;;;;;;;5092365;28;19912;-54
2022/04/03 04:32:13;;;;;;;;;;;;;;;;;;5092872;28;19963;-52
2022/04/03 04:34:40;;;;;;;;;;;;;;;;;;5092887;28;20338;-54
2022/04/03 04:37:06;;;;;;;;;;;;;;;;;;5092718;28;19908;-52
2022/04/03 04:39:33;;;;;;;;;;;;;;;;;;5092341;28;19912;-55
2022/04/03 04:41:59;;;;;;;;;;;;;;;;;;5092856;28;19947;-54
2022/04/03 04:44:26;;;;;;;;;;;;;;;;;;5092776;28;19931;-54
2022/04/03 04:46:53;;;;;;;;;;;;;;;;;;5092727;28;19908;-55
2022/04/03 04:49:19;;;;;;;;;;;;;;;;;;5092726;28;19912;-53
2022/04/03 04:51:46;;;;;;;;;;;;;;;;;;5092686;28;19912;-54
2022/04/03 04:54:12;;;;;;;;;;;;;;;;;;5093236;28;19957;-50
2022/04/03 04:56:39;;;;;;;;;;;;;;;;;;5093127;28;20354;-56
2022/04/03 04:59:06;;;;;;;;;;;;;;;;;;5092948;28;19942;-57
2022/04/03 05:01:32;;;;;;;;;;;;;;;;;;5092711;28;20355;-55
2022/04/03 05:03:59;;;;;;;;;;;;;;;;;;5092626;28;19921;-54
2022/04/03 05:06:26;;;;;;;;;;;;;;;;;;5092667;28;19908;-56
2022/04/03 05:08:53;;;;;;;;;;;;;;;;;;5092196;28;19916;-50
2022/04/03 05:11:19;;;;;;;;;;;;;;;;;;5092583;28;19944;-55
2022/04/03 05:13:45;;;;;;;;;;;;;;;;;;5092189;28;19940;-53
2022/04/03 05:16:12;;;;;;;;;;;;;;;;;;5092469;28;19935;-56
2022/04/03 05:18:38;;;;;;;;;;;;;;;;;;5092372;28;19904;-55
2022/04/03 05:21:05;;;;;;;;;;;;;;;;;;5092625;28;19995;-58
2022/04/03 05:23:31;;;;;;;;;;;;;;;;;;5092671;28;20313;-54
2022/04/03 05:25:58;;;;;;;;;;;;;;;;;;5096216;28;19904;-55
2022/04/03 05:28:24;;;;;;;;;;;;;;;;;;5095216;28;19981;-53
2022/04/03 05:30:51;;;;;;;;;;;;;;;;;;5095386;28;19908;-55
2022/04/03 05:33:17;;;;;;;;;;;;;;;;;;5095963;28;19908;-54
2022/04/03 05:35:44;;;;;;;;;;;;;;;;;;5095905;28;19912;-53
2022/04/03 05:38:11;;;;;;;;;;;;;;;;;;5096234;28;20235;-54
2022/04/03 05:40:38;;;;;;;;;;;;;;;;;;5096176;28;19917;-53
2022/04/03 05:43:04;;;;;;;;;;;;;;;;;;5095868;28;20304;-55
2022/04/03 05:45:31;;;;;;;;;;;;;;;;;;5096015;28;19909;-53
2022/04/03 05:47:57;;;;;;;;;;;;;;;;;;5096006;28;20362;-55
2022/04/03 05:50:24;;;;;;;;;;;;;;;;;;5095550;28;19912;-52
2022/04/03 05:52:50;;;;;;;;;;;;;;;;;;5095769;28;19912;-51
2022/04/03 05:55:17;;;;;;;;;;;;;;;;;;5095978;28;19951;-54
2022/04/03 05:57:43;;;;;;;;;;;;;;;;;;5095158;28;20358;-51
2022/04/03 06:00:12;;;;;;;;;;;;;;;;;;5095822;28;19931;-49
2022/04/03 06:02:39;;;;;;;;;;;;;;;;;;5094038;28;19908;-51
2022/04/03 06:05:05;;;;;;;;;;;;;;;;;;5095464;28;20323;-57
2022/04/03 06:07:32;;;;;;;;;;;;;;;;;;5094935;28;20031;-52
2022/04/03 06:09:59;;;;;;;;;;;;;;;;;;5095732;28;19912;-55
2022/04/03 06:12:25;;;;;;;;;;;;;;;;;;5095405;28;20008;-45
2022/04/03 06:14:52;;;;;;;;;;;;;;;;;;5095540;28;19909;-50
2022/04/03 06:17:18;;;;;;;;;;;;;;;;;;5094714;28;19908;-50
2022/04/03 06:19:45;;;;;;;;;;;;;;;;;;5093787;28;19912;-48
2022/04/03 06:22:11;;;;;;;;;;;;;;;;;;5095033;28;19912;-56
2022/04/03 06:24:38;;;;;;;;;;;;;;;;;;5094238;28;20289;-51
2022/04/03 06:27:04;;;;;;;;;;;;;;;;;;5091537;28;19920;-46
2022/04/03 06:29:31;;;;;;;;;;;;;;;;;;5085370;28;19931;-47
2022/04/03 06:31:57;;;;;;;;;;;;;;;;;;5090684;28;19948;-46
2022/04/03 06:34:24;;;;;;;;;;;;;;;;;;5090676;28;19915;-46
2022/04/03 06:36:50;;;;;;;;;;;;;;;;;;5091146;28;19988;-44
2022/04/03 06:39:16;;;;;;;;;;;;;;;;;;5088740;28;19922;-45
2022/04/03 06:41:43;;;;;;;;;;;;;;;;;;5090734;28;19958;-42
2022/04/03 06:44:09;;;;;;;;;;;;;;;;;;5091632;28;20013;-51
2022/04/03 06:46:36;;;;;;;;;;;;;;;;;;5093420;28;20312;-54
2022/04/03 06:49:02;;;;;;;;;;;;;;;;;;5094536;28;20250;-53
2022/04/03 06:51:29;;;;;;;;;;;;;;;;;;5094253;28;19908;-53
2022/04/03 06:53:55;;;;;;;;;;;;;;;;;;5088256;28;19999;-43
2022/04/03 06:56:22;;;;;;;;;;;;;;;;;;5090915;28;19987;-42
2022/04/03 06:58:48;;;;;;;;;;;;;;;;;;5091420;28;19908;-38
2022/04/03 07:01:15;;;;;;;;;;;;;;;;;;5091036;28;20316;-53
2022/04/03 07:03:41;;;;;;;;;;;;;;;;;;5093005;28;19987;-55
2022/04/03 07:06:08;;;;;;;;;;;;;;;;;;5094098;28;19912;-51
2022/04/03 07:08:34;;;;;;;;;;;;;;;;;;5088434;28;20444;-45
2022/04/03 07:11:01;;;;;;;;;;;;;;;;;;5091119;28;19914;-42
2022/04/03 07:13:27;;;;;;;;;;;;;;;;;;5090546;28;20449;-46
2022/04/03 07:15:54;;;;;;;;;;;;;;;;;;5091980;28;19920;-41
2022/04/03 07:18:20;;;;;;;;;;;;;;;;;;5091367;28;19916;-42
2022/04/03 07:20:48;;;;;;;;;;;;;;;;;;5091282;28;19999;-42
2022/04/03 07:23:14;;;;;;;;;;;;;;;;;;5089540;28;20436;-50
2022/04/03 07:25:41;;;;;;;;;;;;;;;;;;5090788;28;19962;-47
2022/04/03 07:28:07;;;;;;;;;;;;;;;;;;5091520;28;19916;-49
2022/04/03 07:30:34;;;;;;;;;;;;;;;;;;5091468;28;19917;-44
2022/04/03 07:33:00;;;;;;;;;;;;;;;;;;5115065;28;20357;-42
2022/04/03 07:35:27;;;;;;;;;;;;;;;;;;5113624;28;19908;-47
2022/04/03 07:37:53;;;;;;;;;;;;;;;;;;5114642;28;19915;-53
2022/04/03 07:40:20;;;;;;;;;;;;;;;;;;5114837;28;20372;-51
2022/04/03 07:42:49;;;;;;;;;;;;;;;;;;5114877;28;19915;-49
2022/04/03 07:45:16;;;;;;;;;;;;;;;;;;5114765;28;19915;-48
2022/04/03 07:47:42;;;;;;;;;;;;;;;;;;5113904;28;19950;-46
2022/04/03 07:50:08;;;;;;;;;;;;;;;;;;5114662;28;19914;-41
2022/04/03 07:52:35;;;;;;;;;;;;;;;;;;5113234;28;20422;-48
2022/04/03 07:55:01;;;;;;;;;;;;;;;;;;5114412;28;20354;-47
2022/04/03 07:57:28;;;;;;;;;;;;;;;;;;5113710;28;19976;-44
2022/04/03 07:59:54;;;;;;;;;;;;;;;;;;5112693;28;19908;-49
2022/04/03 08:02:21;;;;;;;;;;;;;;;;;;5114529;28;19990;-51
2022/04/03 08:04:47;;;;;;;;;;;;;;;;;;5112987;28;19919;-53
2022/04/03 08:07:14;;;;;;;;;;;;;;;;;;5114227;28;20255;-53
2022/04/03 08:09:41;;;;;;;;;;;;;;;;;;5114399;28;19951;-41
2022/04/03 08:12:08;;;;;;;;;;;;;;;;;;5114306;28;20375;-45
2022/04/03 08:14:34;;;;;;;;;;;;;;;;;;5114512;28;19986;-45
2022/04/03 08:17:01;;;;;;;;;;;;;;;;;;5114309;28;20004;-48
2022/04/03 08:19:27;;;;;;;;;;;;;;;;;;5113906;28;19908;-50
2022/04/03 08:21:54;;;;;;;;;;;;;;;;;;5112674;28;19950;-55
2022/04/03 08:24:20;;;;;;;;;;;;;;;;;;5114039;28;20319;-54
2022/04/03 08:26:47;;;;;;;;;;;;;;;;;;5113883;28;20392;-45
2022/04/03 08:29:13;;;;;;;;;;;;;;;;;;5103867;28;19946;-48
2022/04/03 08:31:40;;;;;;;;;;;;;;;;;;5089816;28;19908;-43
2022/04/03 08:34:06;;;;;;;;;;;;;;;;;;5090463;28;19915;-46
2022/04/03 08:36:33;;;;;;;;;;;;;;;;;;5090125;28;20355;-47
2022/04/03 08:38:59;;;;;;;;;;;;;;;;;;5090285;28;19976;-48
2022/04/03 08:41:26;;;;;;;;;;;;;;;;;;5086893;28;19947;-45
2022/04/03 08:43:52;;;;;;;;;;;;;;;;;;5089783;28;19908;-42
2022/04/03 08:46:18;;;;;;;;;;;;;;;;;;5087576;28;19916;-44
2022/04/03 08:48:46;;;;;;;;;;;;;;;;;;5088146;28;19916;-48
2022/04/03 08:51:13;;;;;;;;;;;;;;;;;;5086064;28;19908;-49
2022/04/03 08:53:39;;;;;;;;;;;;;;;;;;5087513;28;20014;-49
2022/04/03 08:56:06;;;;;;;;;;;;;;;;;;5087239;28;19914;-42
2022/04/03 08:58:32;;;;;;;;;;;;;;;;;;5088126;28;19914;-46
2022/04/03 09:00:59;;;;;;;;;;;;;;;;;;5089818;28;19908;-54
2022/04/03 09:03:25;;;;;;;;;;;;;;;;;;5090842;28;19918;-48
2022/04/03 09:05:52;;;;;;;;;;;;;;;;;;5091650;28;20293;-53
2022/04/03 09:08:19;;;;;;;;;;;;;;;;;;5093495;28;20007;-44
2022/04/03 09:10:45;;;;;;;;;;;;;;;;;;5086930;28;19908;-44
2022/04/03 09:13:12;;;;;;;;;;;;;;;;;;5091267;28;19916;-48
2022/04/03 09:15:38;;;;;;;;;;;;;;;;;;5093737;28;19947;-45
2022/04/03 09:18:06;;;;;;;;;;;;;;;;;;5093451;28;19915;-49
2022/04/03 09:20:32;;;;;;;;;;;;;;;;;;5088945;28;20004;-43
2022/04/03 09:22:59;;;;;;;;;;;;;;;;;;5093630;28;20354;-49
2022/04/03 09:25:25;;;;;;;;;;;;;;;;;;5093956;28;20297;-41
2022/04/03 09:27:52;;;;;;;;;;;;;;;;;;5094338;28;19919;-44
2022/04/03 09:30:18;;;;;;;;;;;;;;;;;;5088712;28;19976;-43
2022/04/03 09:32:44;;;;;;;;;;;;;;;;;;5093392;28;19908;-55
2022/04/03 09:35:11;;;;;;;;;;;;;;;;;;5093609;28;19908;-48
2022/04/03 09:37:37;;;;;;;;;;;;;;;;;;5092526;28;19931;-42
2022/04/03 09:40:04;;;;;;;;;;;;;;;;;;5089524;28;19967;-44
2022/04/03 09:42:30;;;;;;;;;;;;;;;;;;5093755;28;20323;-42
2022/04/03 09:44:57;;;;;;;;;;;;;;;;;;5093754;28;20271;-43
2022/04/03 09:47:26;;;;;;;;;;;;;;;;;;5092318;28;19920;-44
2022/04/03 09:49:52;;;;;;;;;;;;;;;;;;5088836;28;19962;-42
2022/04/03 09:52:19;;;;;;;;;;;;;;;;;;5092406;28;19909;-43
2022/04/03 09:54:45;;;;;;;;;;;;;;;;;;5092331;28;19908;-43
2022/04/03 09:57:12;;;;;;;;;;;;;;;;;;5092406;28;20347;-43
2022/04/03 09:59:38;;;;;;;;;;;;;;;;;;5088460;28;19916;-45
2022/04/03 10:02:05;;;;;;;;;;;;;;;;;;5093039;28;19908;-53
2022/04/03 10:04:33;;;;;;;;;;;;;;;;;;5091819;28;20366;-45
2022/04/03 10:06:59;;;;;;;;;;;;;;;;;;5091111;28;19963;-44
2022/04/03 10:09:26;;;;;;;;;;;;;;;;;;5093227;28;19965;-47
2022/04/03 10:11:53;;;;;;;;;;;;;;;;;;5095877;28;20293;-47
2022/04/03 10:14:20;;;;;;;;;;;;;;;;;;5095567;28;19912;-49
2022/04/03 10:16:47;;;;;;;;;;;;;;;;;;5094836;28;19908;-51
2022/04/03 10:19:13;;;;;;;;;;;;;;;;;;5095551;28;19923;-54
2022/04/03 10:21:40;;;;;;;;;;;;;;;;;;5094832;28;19908;-54
2022/04/03 10:24:06;;;;;;;;;;;;;;;;;;5095418;28;20011;-56
2022/04/03 10:26:32;;;;;;;;;;;;;;;;;;5095399;28;19951;-52
2022/04/03 10:28:59;;;;;;;;;;;;;;;;;;5095288;28;19916;-54
2022/04/03 10:31:26;;;;;;;;;;;;;;;;;;5095223;28;20021;-50
2022/04/03 10:33:52;;;;;;;;;;;;;;;;;;5095611;28;19912;-50
2022/04/03 10:36:19;;;;;;;;;;;;;;;;;;5095262;28;19915;-52
2022/04/03 10:38:48;;;;;;;;;;;;;;;;;;5095620;28;20362;-52
2022/04/03 10:41:14;;;;;;;;;;;;;;;;;;5095297;28;19947;-53
2022/04/03 10:43:41;;;;;;;;;;;;;;;;;;5095323;28;19915;-55
2022/04/03 10:46:08;;;;;;;;;;;;;;;;;;5095235;28;19908;-50
2022/04/03 10:48:35;;;;;;;;;;;;;;;;;;5095444;28;19959;-55
2022/04/03 10:51:01;;;;;;;;;;;;;;;;;;5095189;28;19950;-50
2022/04/03 10:53:28;;;;;;;;;;;;;;;;;;5094837;28;19954;-53
2022/04/03 10:55:55;;;;;;;;;;;;;;;;;;5094271;28;19908;-51
2022/04/03 10:58:22;;;;;;;;;;;;;;;;;;5088582;28;20243;-57
2022/04/03 11:00:48;;;;;;;;;;;;;;;;;;5095274;28;20342;-55
2022/04/03 11:03:14;;;;;;;;;;;;;;;;;;5095093;28;19916;-44
2022/04/03 11:05:42;;;;;;;;;;;;;;;;;;5094294;28;19916;-52
2022/04/03 11:08:08;;;;;;;;;;;;;;;;;;5095178;28;19920;-52
2022/04/03 11:10:35;;;;;;;;;;;;;;;;;;5094807;28;19912;-55
2022/04/03 11:13:01;;;;;;;;;;;;;;;;;;5088956;28;19920;-42
2022/04/03 11:15:28;;;;;;;;;;;;;;;;;;5091523;28;19920;-41
2022/04/03 11:17:54;;;;;;;;;;;;;;;;;;5089282;28;20326;-42
2022/04/03 11:20:21;;;;;;;;;;;;;;;;;;5091542;28;19931;-49
2022/04/03 11:22:47;;;;;;;;;;;;;;;;;;5091689;28;20010;-44
2022/04/03 11:25:14;;;;;;;;;;;;;;;;;;5092770;28;19916;-43
2022/04/03 11:27:41;;;;;;;;;;;;;;;;;;5092048;28;20002;-47
2022/04/03 11:30:07;;;;;;;;;;;;;;;;;;5091909;28;19916;-52
2022/04/03 11:32:35;;;;;;;;;;;;;;;;;;5094765;28;20358;-57
2022/04/03 11:35:01;;;;;;;;;;;;;;;;;;5094444;28;20321;-50
2022/04/03 11:37:28;;;;;;;;;;;;;;;;;;5094076;28;20382;-53
2022/04/03 11:39:55;;;;;;;;;;;;;;;;;;5094464;28;19908;-52
2022/04/03 11:42:22;;;;;;;;;;;;;;;;;;5093911;28;19939;-53
2022/04/03 11:44:48;;;;;;;;;;;;;;;;;;5094256;28;20422;-50
2022/04/03 11:47:14;;;;;;;;;;;;;;;;;;5094032;28;20279;-41
2022/04/03 11:49:41;;;;;;;;;;;;;;;;;;5093650;28;20290;-53
2022/04/03 11:52:07;;;;;;;;;;;;;;;;;;5093954;28;19908;-56
2022/04/03 11:54:34;;;;;;;;;;;;;;;;;;5093997;28;20045;-56
2022/04/03 11:57:00;;;;;;;;;;;;;;;;;;5093728;28;19961;-55
2022/04/03 11:59:27;;;;;;;;;;;;;;;;;;5093749;28;20074;-50
2022/04/03 12:01:54;;;;;;;;;;;;;;;;;;5093607;28;20273;-50
2022/04/03 12:04:22;;;;;;;;;;;;;;;;;;5093492;28;19920;-49
2022/04/03 12:06:49;;;;;;;;;;;;;;;;;;5093787;28;20290;-54
2022/04/03 12:09:19;;;;;;;;;;;;;;;;;;5092876;28;20215;-52
2022/04/03 12:11:48;;;;;;;;;;;;;;;;;;5089797;28;19952;-54
2022/04/03 12:14:14;;;;;;;;;;;;;;;;;;5093625;28;19915;-56
2022/04/03 12:16:41;;;;;;;;;;;;;;;;;;5093558;28;19904;-49
2022/04/03 12:19:14;;;;;;;;;;;;;;;;;;5092304;28;20348;-54
2022/04/03 12:21:41;;;;;;;;;;;;;;;;;;5091852;28;19908;-56
2022/04/03 12:24:08;;;;;;;;;;;;;;;;;;5093066;28;19908;-54
2022/04/03 12:26:34;;;;;;;;;;;;;;;;;;5093036;28;19912;-54
2022/04/03 12:29:01;;;;;;;;;;;;;;;;;;5093034;28;19916;-51
2022/04/03 12:31:27;;;;;;;;;;;;;;;;;;5092738;28;19947;-56
2022/04/03 12:33:54;;;;;;;;;;;;;;;;;;5093088;28;19912;-51
2022/04/03 12:36:20;;;;;;;;;;;;;;;;;;5093089;28;19953;-54
2022/04/03 12:38:47;;;;;;;;;;;;;;;;;;5092925;28;20370;-56
2022/04/03 12:41:13;;;;;;;;;;;;;;;;;;5092783;28;19912;-54
2022/04/03 12:43:40;;;;;;;;;;;;;;;;;;5092946;28;19914;-56
2022/04/03 12:46:06;;;;;;;;;;;;;;;;;;5093053;28;19954;-53
2022/04/03 12:48:34;;;;;;;;;;;;;;;;;;5092822;28;19922;-56
2022/04/03 12:51:00;;;;;;;;;;;;;;;;;;5091300;28;20358;-55
2022/04/03 12:53:28;;;;;;;;;;;;;;;;;;5092772;28;20359;-55
2022/04/03 12:55:56;;;;;;;;;;;;;;;;;;5092201;28;19938;-53
2022/04/03 12:58:26;;;;;;;;;;;;;;;;;;5093110;28;19908;-54
2022/04/03 13:00:56;;;;;;;;;;;;;;;;;;5092543;28;20243;-56
2022/04/03 13:03:22;;;;;;;;;;;;;;;;;;5091999;28;19908;-56
2022/04/03 13:05:49;;;;;;;;;;;;;;;;;;5092358;28;19962;-51
2022/04/03 13:08:15;;;;;;;;;;;;;;;;;;5092867;28;19928;-57
2022/04/03 13:10:42;;;;;;;;;;;;;;;;;;5092691;28;19954;-52
2022/04/03 13:13:08;;;;;;;;;;;;;;;;;;5092823;28;19919;-56
2022/04/03 13:15:35;;;;;;;;;;;;;;;;;;5090941;28;19912;-54
2022/04/03 13:18:01;;;;;;;;;;;;;;;;;;5092913;28;20366;-57
2022/04/03 13:20:28;;;;;;;;;;;;;;;;;;5092584;28;20845;-57
2022/04/03 13:22:54;;;;;;;;;;;;;;;;;;5092845;28;20262;-56
2022/04/03 13:25:20;;;;;;;;;;;;;;;;;;5092794;28;20281;-58
2022/04/03 13:27:47;;;;;;;;;;;;;;;;;;5092045;28;20259;-57
2022/04/03 13:30:13;;;;;;;;;;;;;;;;;;5092626;28;19959;-58
2022/04/03 13:32:40;;;;;;;;;;;;;;;;;;5092729;28;19908;-53
2022/04/03 13:35:07;;;;;;;;;;;;;;;;;;5092693;28;19936;-56
2022/04/03 13:37:33;;;;;;;;;;;;;;;;;;5092587;28;19912;-55
2022/04/03 13:40:01;;;;;;;;;;;;;;;;;;5092994;28;19908;-58
2022/04/03 13:42:28;;;;;;;;;;;;;;;;;;5093027;28;19915;-57
2022/04/03 13:44:55;;;;;;;;;;;;;;;;;;5093984;28;19915;-56
2022/04/03 13:47:22;;;;;;;;;;;;;;;;;;5096559;28;19981;-56
2022/04/03 13:49:48;;;;;;;;;;;;;;;;;;5096420;28;19916;-55
2022/04/03 13:52:15;;;;;;;;;;;;;;;;;;5096431;28;19911;-43
2022/04/03 13:54:41;;;;;;;;;;;;;;;;;;5096415;28;19954;-56
2022/04/03 13:57:08;;;;;;;;;;;;;;;;;;5096590;28;19950;-56
2022/04/03 13:59:35;;;;;;;;;;;;;;;;;;5096302;28;19935;-49
2022/04/03 14:02:01;;;;;;;;;;;;;;;;;;5096302;28;19905;-43
2022/04/03 14:04:28;;;;;;;;;;;;;;;;;;5094594;28;19926;-51
2022/04/03 14:06:54;;;;;;;;;;;;;;;;;;5096306;28;19904;-50
2022/04/03 14:09:21;;;;;;;;;;;;;;;;;;5096207;28;19922;-45
2022/04/03 14:11:48;;;;;;;;;;;;;;;;;;5096061;28;19999;-57
2022/04/03 14:14:14;;;;;;;;;;;;;;;;;;5096256;28;19923;-57
2022/04/03 14:16:41;;;;;;;;;;;;;;;;;;5096078;28;20228;-53
2022/04/03 14:19:07;;;;;;;;;;;;;;;;;;5096146;28;19908;-57
2022/04/03 14:21:34;;;;;;;;;;;;;;;;;;5095707;28;19912;-55
2022/04/03 14:24:00;;;;;;;;;;;;;;;;;;5096221;28;19915;-45
2022/04/03 14:26:26;;;;;;;;;;;;;;;;;;5096289;28;19908;-56
2022/04/03 14:28:53;;;;;;;;;;;;;;;;;;5095434;28;20389;-58
2022/04/03 14:31:19;;;;;;;;;;;;;;;;;;5095874;28;19908;-55
2022/04/03 14:33:46;;;;;;;;;;;;;;;;;;5095464;28;19918;-56
2022/04/03 14:36:14;;;;;;;;;;;;;;;;;;5095736;28;20051;-58
2022/04/03 14:38:40;;;;;;;;;;;;;;;;;;5095527;28;19909;-52
2022/04/03 14:41:07;;;;;;;;;;;;;;;;;;5096066;28;20362;-57
2022/04/03 14:43:33;;;;;;;;;;;;;;;;;;5095537;28;20366;-57
2022/04/03 14:46:00;;;;;;;;;;;;;;;;;;5095523;28;19908;-56
2022/04/03 14:48:26;;;;;;;;;;;;;;;;;;5095418;28;19961;-51
2022/04/03 14:50:53;;;;;;;;;;;;;;;;;;5095401;28;19958;-56
2022/04/03 14:53:19;;;;;;;;;;;;;;;;;;5095270;28;19908;-57
2022/04/03 14:55:46;;;;;;;;;;;;;;;;;;5094663;28;19919;-54
2022/04/03 14:58:14;;;;;;;;;;;;;;;;;;5094673;28;20263;-59
2022/04/03 15:00:40;;;;;;;;;;;;;;;;;;5095339;28;19947;-57
2022/04/03 15:03:07;;;;;;;;;;;;;;;;;;5094087;28;19915;-55
2022/04/03 15:05:33;;;;;;;;;;;;;;;;;;5094550;28;20286;-55
2022/04/03 15:07:59;;;;;;;;;;;;;;;;;;5095246;28;20272;-58
2022/04/03 15:10:26;;;;;;;;;;;;;;;;;;5095057;28;19967;-57
2022/04/03 15:12:53;;;;;;;;;;;;;;;;;;5094749;28;19950;-56
2022/04/03 15:15:19;;;;;;;;;;;;;;;;;;5095072;28;20378;-58
2022/04/03 15:17:46;;;;;;;;;;;;;;;;;;5094697;28;20351;-47
2022/04/03 15:20:12;;;;;;;;;;;;;;;;;;5094718;28;20302;-57
2022/04/03 15:22:40;;;;;;;;;;;;;;;;;;5094772;28;19908;-57
2022/04/03 15:25:06;;;;;;;;;;;;;;;;;;5094794;28;19915;-55
2022/04/03 15:27:33;;;;;;;;;;;;;;;;;;5094505;28;20388;-59
2022/04/03 15:29:59;;;;;;;;;;;;;;;;;;5095146;28;19908;-55
2022/04/03 15:32:26;;;;;;;;;;;;;;;;;;5094649;28;19904;-52
2022/04/03 15:34:52;;;;;;;;;;;;;;;;;;5094597;28;19915;-51
2022/04/03 15:37:21;;;;;;;;;;;;;;;;;;5094705;28;19991;-52
2022/04/03 15:39:47;;;;;;;;;;;;;;;;;;5094185;28;19908;-48
2022/04/03 15:42:14;;;;;;;;;;;;;;;;;;5094561;28;19919;-45
2022/04/03 15:44:40;;;;;;;;;;;;;;;;;;5094309;28;20362;-47
2022/04/03 15:47:07;;;;;;;;;;;;;;;;;;5094233;28;19905;-56
2022/04/03 15:49:33;;;;;;;;;;;;;;;;;;5093947;28;19954;-56
2022/04/03 15:52:00;;;;;;;;;;;;;;;;;;5094452;28;19909;-55
2022/04/03 15:54:26;;;;;;;;;;;;;;;;;;5094315;28;19908;-57
2022/04/03 15:56:53;;;;;;;;;;;;;;;;;;5094159;28;19908;-57
2022/04/03 15:59:21;;;;;;;;;;;;;;;;;;5094448;28;19915;-57
2022/04/03 16:01:48;;;;;;;;;;;;;;;;;;5094230;28;19981;-58
2022/04/03 16:04:14;;;;;;;;;;;;;;;;;;5093925;28;20390;-57
2022/04/03 16:06:41;;;;;;;;;;;;;;;;;;5094629;28;20282;-54
2022/04/03 16:09:07;;;;;;;;;;;;;;;;;;5093428;28;20302;-50
2022/04/03 16:11:34;;;;;;;;;;;;;;;;;;5093633;28;20309;-55
2022/04/03 16:14:00;;;;;;;;;;;;;;;;;;5093803;28;19933;-51
2022/04/03 16:16:27;;;;;;;;;;;;;;;;;;5094089;28;19999;-47
2022/04/03 16:18:54;;;;;;;;;;;;;;;;;;5093746;28;19916;-50
2022/04/03 16:21:22;;;;;;;;;;;;;;;;;;5093705;28;19968;-57
2022/04/03 16:23:48;;;;;;;;;;;;;;;;;;5093627;28;20371;-57
2022/04/03 16:26:15;;;;;;;;;;;;;;;;;;5093755;28;19930;-56
2022/04/03 16:28:41;;;;;;;;;;;;;;;;;;5093852;28;19922;-57
2022/04/03 16:31:08;;;;;;;;;;;;;;;;;;5093695;28;19908;-56
2022/04/03 16:33:35;;;;;;;;;;;;;;;;;;5093470;28;19912;-56
2022/04/03 16:36:01;;;;;;;;;;;;;;;;;;5093834;28;19954;-59
2022/04/03 16:38:27;;;;;;;;;;;;;;;;;;5093346;28;19908;-53
2022/04/03 16:40:56;;;;;;;;;;;;;;;;;;5093414;28;19913;-50